Time;durP1;ratioP1;P1;durP2;ratioP2;P2;SDS_P1;SDS_P2;PMS_P1;PMS_P2;Temp;Humidity;BMP_temperature;BMP_pressure;BME280_temperature;BME280_humidity;BME280_pressure;Samples;Min_cycle;Max_cycle;Signal;HPM_P1;HPM_P2
2022/01/03 00:02:13;;;;;;;;;;;;;;;9.91;79.07;100642.19;5060337;27;20354;-69
2022/01/03 00:04:38;;;;;;;;;;;;;;;9.92;78.29;100641.19;5077573;27;20011;-69
2022/01/03 00:07:04;;;;;;;;;;;;;;;9.98;78.34;100647.75;5044709;27;19911;-69
2022/01/03 00:09:29;;;;;;;;;;;;;;;10.03;77.91;100647.38;5019515;27;19918;-69
2022/01/03 00:11:54;;;;;;;;;;;;;;;9.90;78.64;100653.72;5045688;27;20527;-68
2022/01/03 00:14:19;;;;;;;;;;;;;;;10.08;77.74;100650.41;5040378;27;20291;-70
2022/01/03 00:16:44;;;;;;;;;;;;;;;10.03;77.81;100653.47;5060729;27;20344;-69
2022/01/03 00:19:10;;;;;;;;;;;;;;;10.10;77.45;100648.50;5039017;27;20016;-68
2022/01/03 00:21:39;;;;;;;;;;;;;;;10.05;77.59;100653.34;5077990;27;20028;-69
2022/01/03 00:24:05;;;;;;;;;;;;;;;10.04;77.23;100649.00;5042104;27;19918;-70
2022/01/03 00:26:31;;;;;;;;;;;;;;;10.05;77.31;100650.69;5063458;27;20858;-69
2022/01/03 00:28:57;;;;;;;;;;;;;;;10.03;77.35;100648.19;5037822;27;19967;-69
2022/01/03 00:31:22;;;;;;;;;;;;;;;10.13;77.46;100653.50;5058302;27;20072;-69
2022/01/03 00:33:49;;;;;;;;;;;;;;;10.19;76.88;100646.81;5038410;27;20162;-68
2022/01/03 00:36:14;;;;;;;;;;;;;;;10.21;76.36;100656.31;5021686;27;20290;-69
2022/01/03 00:38:40;;;;;;;;;;;;;;;10.23;76.40;100648.22;5038493;27;19963;-70
2022/01/03 00:41:05;;;;;;;;;;;;;;;10.20;76.99;100654.63;5054938;27;19911;-68
2022/01/03 00:43:31;;;;;;;;;;;;;;;10.12;77.67;100651.81;5057591;27;19980;-71
2022/01/03 00:45:56;;;;;;;;;;;;;;;10.05;79.03;100656.81;5022267;27;19910;-67
2022/01/03 00:48:22;;;;;;;;;;;;;;;9.95;78.55;100656.78;5057517;27;20338;-69
2022/01/03 00:50:47;;;;;;;;;;;;;;;9.96;78.59;100653.19;5021873;27;19914;-68
2022/01/03 00:53:12;;;;;;;;;;;;;;;10.07;77.69;100660.16;5054542;27;19914;-69
2022/01/03 00:55:39;;;;;;;;;;;;;;;10.07;77.34;100667.28;5038685;27;20376;-68
2022/01/03 00:58:08;;;;;;;;;;;;;;;9.99;78.33;100667.94;5035762;27;19911;-69
2022/01/03 01:00:36;;;;;;;;;;;;;;;10.16;78.01;100674.38;5034816;27;19911;-69
2022/01/03 01:03:02;;;;;;;;;;;;;;;10.13;77.28;100678.13;5035176;27;19952;-69
2022/01/03 01:05:27;;;;;;;;;;;;;;;10.03;77.23;100664.06;5056172;27;20341;-68
2022/01/03 01:07:53;;;;;;;;;;;;;;;10.21;76.06;100711.84;5039075;27;20045;-70
2022/01/03 01:10:19;;;;;;;;;;;;;;;10.22;75.87;100663.25;5036142;27;20029;-68
2022/01/03 01:12:46;;;;;;;;;;;;;;;10.14;76.50;100676.34;5038787;27;20898;-68
2022/01/03 01:15:11;;;;;;;;;;;;;;;10.01;76.56;100681.00;5054204;27;19908;-67
2022/01/03 01:17:36;;;;;;;;;;;;;;;9.97;76.03;100665.44;5040055;27;19914;-68
2022/01/03 01:20:02;;;;;;;;;;;;;;;10.07;75.49;100675.22;5037069;27;20869;-70
2022/01/03 01:22:28;;;;;;;;;;;;;;;10.08;75.39;100676.84;5054052;27;19934;-71
2022/01/03 01:25:23;;;;;;;;;;;;;;;9.97;76.88;100680.47;5038717;27;19910;-68
2022/01/03 01:27:49;;;;;;;;;;;;;;;9.94;76.67;100693.94;5042116;27;19915;-69
2022/01/03 01:30:14;;;;;;;;;;;;;;;9.89;76.71;100680.28;5037996;27;20584;-68
2022/01/03 01:32:42;;;;;;;;;;;;;;;9.99;76.13;100682.97;5039269;27;19926;-67
2022/01/03 01:35:07;;;;;;;;;;;;;;;9.90;76.75;100690.72;5038187;27;19914;-68
2022/01/03 01:37:32;;;;;;;;;;;;;;;9.92;77.00;100698.53;5038225;27;19903;-68
2022/01/03 01:39:57;;;;;;;;;;;;;;;9.86;76.83;100701.72;5019592;27;20684;-68
2022/01/03 01:42:23;;;;;;;;;;;;;;;9.91;76.77;100694.19;5038131;27;19903;-68
2022/01/03 01:44:48;;;;;;;;;;;;;;;10.03;76.29;100694.94;5057385;27;19925;-67
2022/01/03 01:47:14;;;;;;;;;;;;;;;9.88;77.29;100705.88;5054899;27;19899;-68
2022/01/03 01:49:44;;;;;;;;;;;;;;;9.94;76.27;100713.28;5040371;27;19940;-67
2022/01/03 01:52:10;;;;;;;;;;;;;;;9.94;76.27;100697.44;5039624;27;20475;-68
2022/01/03 01:54:37;;;;;;;;;;;;;;;9.93;76.98;100698.38;5023259;27;19911;-67
2022/01/03 01:57:03;;;;;;;;;;;;;;;9.91;77.14;100713.56;5053487;27;20058;-69
2022/01/03 01:59:39;;;;;;;;;;;;;;;9.85;76.55;100708.78;5040114;27;20383;-68
2022/01/03 02:02:05;;;;;;;;;;;;;;;9.88;76.56;100713.78;5055446;27;21043;-69
2022/01/03 02:04:31;;;;;;;;;;;;;;;9.94;76.75;100709.78;5041921;27;19907;-67
2022/01/03 02:06:57;;;;;;;;;;;;;;;9.82;77.07;100719.63;5033640;27;19918;-68
2022/01/03 02:09:29;;;;;;;;;;;;;;;9.89;76.20;100706.72;5039977;27;20395;-69
2022/01/03 02:11:55;;;;;;;;;;;;;;;9.87;76.57;100704.22;5035936;27;20343;-68
2022/01/03 02:14:21;;;;;;;;;;;;;;;9.91;76.55;100697.69;5039812;27;19913;-68
2022/01/03 02:16:46;;;;;;;;;;;;;;;9.80;76.29;100703.09;5020803;27;20904;-67
2022/01/03 02:19:12;;;;;;;;;;;;;;;9.75;76.66;100707.91;5054365;27;19907;-69
2022/01/03 02:21:37;;;;;;;;;;;;;;;9.79;75.96;100704.03;5038351;27;20298;-68
2022/01/03 02:24:03;;;;;;;;;;;;;;;9.70;76.76;100707.47;5057324;27;19963;-68
2022/01/03 02:26:28;;;;;;;;;;;;;;;9.73;76.35;100696.63;5021699;27;19907;-69
2022/01/03 02:28:53;;;;;;;;;;;;;;;9.76;76.05;100705.13;5053119;27;20563;-68
2022/01/03 02:31:19;;;;;;;;;;;;;;;9.73;76.20;100708.06;5057351;27;20115;-69
2022/01/03 02:33:44;;;;;;;;;;;;;;;9.65;76.18;100704.41;5019538;27;19904;-67
2022/01/03 02:36:09;;;;;;;;;;;;;;;9.65;75.56;100702.59;5053831;27;19911;-69
2022/01/03 02:38:34;;;;;;;;;;;;;;;9.64;75.77;100716.75;5020429;27;20228;-67
2022/01/03 02:41:00;;;;;;;;;;;;;;;9.71;75.43;100706.50;5057203;27;19907;-68
2022/01/03 02:43:25;;;;;;;;;;;;;;;9.69;75.55;100703.16;5055010;27;20147;-70
2022/01/03 02:45:50;;;;;;;;;;;;;;;9.63;75.82;100704.50;5052346;27;19934;-68
2022/01/03 02:48:16;;;;;;;;;;;;;;;9.69;76.23;100688.16;5021337;27;20248;-68
2022/01/03 02:50:41;;;;;;;;;;;;;;;9.67;75.46;100694.53;5033295;27;19952;-68
2022/01/03 02:53:06;;;;;;;;;;;;;;;9.82;75.43;100697.66;5036998;27;20265;-68
2022/01/03 02:55:31;;;;;;;;;;;;;;;9.84;74.84;100699.16;5033685;27;20570;-68
2022/01/03 02:57:59;;;;;;;;;;;;;;;9.82;75.04;100703.78;5022335;27;20877;-68
2022/01/03 03:00:25;;;;;;;;;;;;;;;9.89;75.09;100698.78;5019685;27;20799;-67
2022/01/03 03:02:50;;;;;;;;;;;;;;;9.94;74.79;100710.63;5033231;27;19908;-68
2022/01/03 03:05:15;;;;;;;;;;;;;;;9.71;75.33;100701.22;5055054;27;19911;-69
2022/01/03 03:07:41;;;;;;;;;;;;;;;9.71;75.80;100711.78;5015578;27;19911;-68
2022/01/03 03:10:07;;;;;;;;;;;;;;;9.70;74.98;100702.19;5055167;27;20524;-68
2022/01/03 03:12:32;;;;;;;;;;;;;;;9.75;74.92;100694.69;5034466;27;20289;-66
2022/01/03 03:14:57;;;;;;;;;;;;;;;9.64;75.26;100703.53;5053744;27;20257;-68
2022/01/03 03:17:22;;;;;;;;;;;;;;;9.82;74.95;100702.94;5035780;27;20220;-67
2022/01/03 03:19:57;;;;;;;;;;;;;;;9.77;74.93;100700.69;5054420;27;19948;-69
2022/01/03 03:22:23;;;;;;;;;;;;;;;9.76;75.26;100706.94;5055530;27;20410;-68
2022/01/03 03:24:48;;;;;;;;;;;;;;;9.68;75.25;100702.31;5017644;27;20697;-67
2022/01/03 03:27:14;;;;;;;;;;;;;;;9.76;74.71;100718.34;5032159;27;19907;-69
2022/01/03 03:29:46;;;;;;;;;;;;;;;9.79;75.07;100712.78;5019141;27;20917;-68
2022/01/03 03:32:11;;;;;;;;;;;;;;;9.83;74.11;100705.44;5037387;27;20101;-69
2022/01/03 03:34:36;;;;;;;;;;;;;;;9.78;74.21;100712.94;5039307;27;20613;-67
2022/01/03 03:37:01;;;;;;;;;;;;;;;9.69;74.31;100714.56;5054755;27;19915;-70
2022/01/03 03:39:27;;;;;;;;;;;;;;;9.73;74.27;100715.97;5038116;27;20379;-68
2022/01/03 03:41:52;;;;;;;;;;;;;;;9.61;74.84;100711.75;5057459;27;19974;-69
2022/01/03 03:44:17;;;;;;;;;;;;;;;9.62;74.26;100721.34;5057913;27;19919;-68
2022/01/03 03:46:42;;;;;;;;;;;;;;;9.67;74.05;100734.16;5057456;27;20034;-68
2022/01/03 03:49:09;;;;;;;;;;;;;;;9.58;74.42;100710.19;5063088;27;19919;-68
2022/01/03 03:51:38;;;;;;;;;;;;;;;9.65;74.18;100701.75;5041716;27;19923;-68
2022/01/03 03:54:03;;;;;;;;;;;;;;;9.49;74.74;100712.78;5047336;27;19907;-68
2022/01/03 03:56:28;;;;;;;;;;;;;;;9.41;74.87;100710.81;5061018;27;19918;-69
2022/01/03 03:58:53;;;;;;;;;;;;;;;9.58;73.92;100706.72;5061054;27;19913;-68
2022/01/03 04:01:19;;;;;;;;;;;;;;;9.59;74.19;100711.88;5060376;27;19906;-69
2022/01/03 04:03:44;;;;;;;;;;;;;;;9.44;74.61;100713.19;5059841;27;19914;-68
2022/01/03 04:06:09;;;;;;;;;;;;;;;9.52;74.69;100717.78;5037776;27;19910;-69
2022/01/03 04:08:34;;;;;;;;;;;;;;;9.56;74.34;100714.78;5043200;27;19903;-67
2022/01/03 04:11:00;;;;;;;;;;;;;;;9.54;74.16;100711.41;5068037;27;19971;-68
2022/01/03 04:13:25;;;;;;;;;;;;;;;9.65;73.39;100707.88;5049805;27;19919;-67
2022/01/03 04:15:50;;;;;;;;;;;;;;;9.54;73.89;100708.78;5076830;27;19952;-68
2022/01/03 04:18:15;;;;;;;;;;;;;;;9.64;73.33;100711.47;5078626;27;20232;-67
2022/01/03 04:20:40;;;;;;;;;;;;;;;9.52;74.37;100709.88;5073398;27;20000;-68
2022/01/03 04:23:06;;;;;;;;;;;;;;;9.63;73.10;100712.44;5061804;27;20126;-68
2022/01/03 04:25:31;;;;;;;;;;;;;;;9.65;73.79;100714.97;5074021;27;19999;-68
2022/01/03 04:27:56;;;;;;;;;;;;;;;9.47;74.54;100718.19;5077582;27;20037;-68
2022/01/03 04:30:21;;;;;;;;;;;;;;;9.60;73.43;100716.19;5073231;27;19923;-68
2022/01/03 04:32:47;;;;;;;;;;;;;;;9.54;73.31;100711.41;5077454;27;20075;-68
2022/01/03 04:35:13;;;;;;;;;;;;;;;9.59;73.13;100709.22;5018832;27;19907;-67
2022/01/03 04:37:38;;;;;;;;;;;;;;;9.68;72.34;100712.06;5039772;27;20257;-68
2022/01/03 04:40:03;;;;;;;;;;;;;;;9.57;73.22;100710.31;5035415;27;20198;-67
2022/01/03 04:42:29;;;;;;;;;;;;;;;9.52;72.75;100708.09;5053919;27;19903;-68
2022/01/03 04:44:56;;;;;;;;;;;;;;;9.55;72.86;100713.09;5037323;27;19930;-68
2022/01/03 04:47:21;;;;;;;;;;;;;;;9.60;72.68;100710.06;5055846;27;19967;-70
2022/01/03 04:49:47;;;;;;;;;;;;;;;9.61;72.52;100709.91;5057016;27;20437;-70
2022/01/03 04:52:12;;;;;;;;;;;;;;;9.60;72.72;100710.91;5035851;27;20085;-68
2022/01/03 04:54:37;;;;;;;;;;;;;;;9.64;71.94;100716.75;5056991;27;20834;-69
2022/01/03 04:57:02;;;;;;;;;;;;;;;9.48;72.89;100704.03;5023149;27;20807;-68
2022/01/03 04:59:28;;;;;;;;;;;;;;;9.63;72.22;100710.66;5039157;27;19907;-69
2022/01/03 05:01:53;;;;;;;;;;;;;;;9.61;72.41;100717.03;5036558;27;20024;-68
2022/01/03 05:04:18;;;;;;;;;;;;;;;9.70;71.66;100710.97;5056300;27;19909;-69
2022/01/03 05:06:43;;;;;;;;;;;;;;;9.59;72.33;100703.94;5020525;27;20418;-68
2022/01/03 05:09:09;;;;;;;;;;;;;;;9.62;72.61;100703.69;5035157;27;19915;-70
2022/01/03 05:11:34;;;;;;;;;;;;;;;9.68;72.05;100704.94;5036592;27;20320;-68
2022/01/03 05:13:59;;;;;;;;;;;;;;;9.54;72.56;100706.13;5036110;27;19910;-69
2022/01/03 05:16:24;;;;;;;;;;;;;;;9.57;72.33;100710.31;5059620;27;20299;-68
2022/01/03 05:18:50;;;;;;;;;;;;;;;9.78;71.41;100712.94;5034649;27;19907;-69
2022/01/03 05:21:15;;;;;;;;;;;;;;;9.71;71.62;100706.50;5039338;27;20094;-70
2022/01/03 05:23:40;;;;;;;;;;;;;;;9.71;71.32;100709.97;5052952;27;20020;-69
2022/01/03 05:26:06;;;;;;;;;;;;;;;9.69;71.24;100713.75;5039113;27;20093;-70
2022/01/03 05:28:31;;;;;;;;;;;;;;;9.78;70.55;100697.91;5033235;27;19911;-69
2022/01/03 05:30:57;;;;;;;;;;;;;;;9.74;70.93;100695.66;5038939;27;20161;-69
2022/01/03 05:33:22;;;;;;;;;;;;;;;9.75;71.30;100697.34;5009233;27;20873;-69
2022/01/03 05:35:48;;;;;;;;;;;;;;;9.72;71.09;100689.69;5020729;27;20000;-68
2022/01/03 05:38:13;;;;;;;;;;;;;;;9.84;70.61;100701.00;5023123;27;19908;-68
2022/01/03 05:40:38;;;;;;;;;;;;;;;9.83;70.39;100692.22;5043293;27;19911;-69
2022/01/03 05:43:03;;;;;;;;;;;;;;;9.70;70.73;100689.81;5029458;27;19968;-68
2022/01/03 05:45:29;;;;;;;;;;;;;;;9.72;70.65;100687.88;5040299;27;19927;-69
2022/01/03 05:47:55;;;;;;;;;;;;;;;9.70;71.44;100686.31;5053027;27;20036;-68
2022/01/03 05:50:20;;;;;;;;;;;;;;;9.85;70.95;100697.38;5018786;27;19952;-69
2022/01/03 05:52:46;;;;;;;;;;;;;;;9.73;71.55;100683.41;5052277;27;20845;-68
2022/01/03 05:55:11;;;;;;;;;;;;;;;9.65;71.23;100683.25;5033491;27;20826;-69
2022/01/03 05:57:36;;;;;;;;;;;;;;;9.71;71.45;100690.66;5033073;27;20007;-69
2022/01/03 06:00:03;;;;;;;;;;;;;;;9.72;71.44;100676.47;5032503;27;19911;-68
2022/01/03 06:02:32;;;;;;;;;;;;;;;9.72;71.35;100672.00;5051877;27;19956;-70
2022/01/03 06:05:01;;;;;;;;;;;;;;;9.79;71.71;100670.50;5053910;27;20302;-70
2022/01/03 06:07:26;;;;;;;;;;;;;;;9.73;71.90;100663.13;5054496;27;20311;-70
2022/01/03 06:09:51;;;;;;;;;;;;;;;9.71;72.02;100661.59;5055144;27;19945;-70
2022/01/03 06:12:17;;;;;;;;;;;;;;;9.84;71.43;100653.41;5020742;27;19922;-69
2022/01/03 06:14:43;;;;;;;;;;;;;;;9.94;70.41;100646.34;5038277;27;21102;-69
2022/01/03 06:17:08;;;;;;;;;;;;;;;9.80;71.15;100652.88;5075068;27;19940;-68
2022/01/03 06:19:33;;;;;;;;;;;;;;;9.85;71.42;100653.28;5054596;27;19907;-69
2022/01/03 06:21:59;;;;;;;;;;;;;;;10.03;70.59;100647.38;5037631;27;19902;-68
2022/01/03 06:24:24;;;;;;;;;;;;;;;10.05;70.78;100656.81;5053379;27;19967;-68
2022/01/03 06:26:49;;;;;;;;;;;;;;;10.02;70.56;100645.69;5034209;27;20354;-68
2022/01/03 06:29:15;;;;;;;;;;;;;;;9.91;71.13;100634.25;5030417;27;19907;-70
2022/01/03 06:31:41;;;;;;;;;;;;;;;9.76;71.87;100646.19;5013038;27;20407;-69
2022/01/03 06:34:06;;;;;;;;;;;;;;;10.01;70.80;100644.00;5032130;27;19963;-68
2022/01/03 06:36:31;;;;;;;;;;;;;;;10.12;70.41;100646.53;5053976;27;20054;-68
2022/01/03 06:38:57;;;;;;;;;;;;;;;9.96;71.04;100642.59;5017085;27;19915;-68
2022/01/03 06:41:22;;;;;;;;;;;;;;;10.00;71.10;100637.03;5053857;27;19907;-70
2022/01/03 06:43:48;;;;;;;;;;;;;;;9.85;71.85;100645.34;5018806;27;19995;-69
2022/01/03 06:46:13;;;;;;;;;;;;;;;9.88;71.07;100642.44;5034875;27;19990;-70
2022/01/03 06:48:38;;;;;;;;;;;;;;;9.84;71.44;100643.66;5034684;27;19918;-69
2022/01/03 06:51:03;;;;;;;;;;;;;;;9.89;71.15;100638.81;5053355;27;19952;-70
2022/01/03 06:53:29;;;;;;;;;;;;;;;9.89;71.59;100653.88;5036460;27;20373;-69
2022/01/03 06:55:54;;;;;;;;;;;;;;;10.01;71.24;100644.84;5052204;27;20214;-69
2022/01/03 06:58:19;;;;;;;;;;;;;;;9.94;71.47;100651.63;5036184;27;20912;-70
2022/01/03 07:00:44;;;;;;;;;;;;;;;9.93;71.58;100642.88;5049712;27;20007;-70
2022/01/03 07:03:09;;;;;;;;;;;;;;;9.96;71.50;100652.34;5054962;27;19917;-69
2022/01/03 07:05:35;;;;;;;;;;;;;;;9.92;70.86;100638.56;5049977;27;19907;-69
2022/01/03 07:08:00;;;;;;;;;;;;;;;9.85;71.26;100645.34;5054322;27;19967;-70
2022/01/03 07:10:25;;;;;;;;;;;;;;;9.80;71.86;100639.66;5031784;27;20004;-68
2022/01/03 07:12:52;;;;;;;;;;;;;;;9.95;71.10;100643.56;5055913;27;19926;-69
2022/01/03 07:20:48;;;;;;;;;;;;;;;9.75;72.18;100649.78;5052508;27;19911;-69
2022/01/03 07:23:14;;;;;;;;;;;;;;;9.89;71.66;100645.94;5037566;27;20442;-69
2022/01/03 07:25:39;;;;;;;;;;;;;;;9.71;72.97;100643.91;5020951;27;19918;-68
2022/01/03 07:28:04;;;;;;;;;;;;;;;9.76;72.56;100640.88;5033684;27;19974;-69
2022/01/03 07:30:29;;;;;;;;;;;;;;;9.66;72.82;100638.22;5036232;27;20349;-68
2022/01/03 07:32:54;;;;;;;;;;;;;;;9.74;72.83;100634.88;5033261;27;19927;-68
2022/01/03 07:35:20;;;;;;;;;;;;;;;9.91;72.58;100631.63;5033287;27;19907;-67
2022/01/03 07:37:45;;;;;;;;;;;;;;;9.71;72.88;100627.22;5050808;27;20028;-71
2022/01/03 07:40:10;;;;;;;;;;;;;;;9.78;72.86;100634.47;5036815;27;20683;-68
2022/01/03 07:42:36;;;;;;;;;;;;;;;9.86;72.92;100633.00;5031264;27;20043;-68
2022/01/03 07:45:01;;;;;;;;;;;;;;;9.74;73.50;100637.53;5036229;27;20735;-68
2022/01/03 07:47:26;;;;;;;;;;;;;;;9.74;73.22;100643.66;5031634;27;19973;-67
2022/01/03 07:49:51;;;;;;;;;;;;;;;9.76;73.46;100640.88;5057125;27;19915;-69
2022/01/03 07:52:16;;;;;;;;;;;;;;;9.72;73.49;100644.78;5013894;27;19919;-68
2022/01/03 07:54:42;;;;;;;;;;;;;;;9.86;73.25;100641.75;5035214;27;20349;-69
2022/01/03 07:57:07;;;;;;;;;;;;;;;9.85;73.19;100640.06;5033381;27;20153;-68
2022/01/03 07:59:32;;;;;;;;;;;;;;;9.84;73.87;100638.38;5053628;27;19948;-69
2022/01/03 08:01:59;;;;;;;;;;;;;;;9.72;73.99;100652.69;5020474;27;20732;-68
2022/01/03 08:04:24;;;;;;;;;;;;;;;9.74;74.06;100648.09;5049455;27;19912;-68
2022/01/03 08:06:50;;;;;;;;;;;;;;;9.72;74.02;100648.22;5037093;27;20342;-69
2022/01/03 08:09:15;;;;;;;;;;;;;;;9.71;74.47;100654.47;5053637;27;20003;-68
2022/01/03 08:11:40;;;;;;;;;;;;;;;9.75;74.32;100642.69;5052792;27;20027;-69
2022/01/03 08:14:05;;;;;;;;;;;;;;;9.61;74.75;100645.69;5041940;27;20657;-69
2022/01/03 08:16:31;;;;;;;;;;;;;;;9.58;74.75;100652.06;5053204;27;20604;-69
2022/01/03 08:18:56;;;;;;;;;;;;;;;9.54;75.38;100648.00;5018310;27;20781;-67
2022/01/03 08:21:21;;;;;;;;;;;;;;;9.59;75.41;100651.09;5020807;27;20250;-69
2022/01/03 08:23:46;;;;;;;;;;;;;;;9.69;75.28;100637.94;5055758;27;20206;-68
2022/01/03 08:26:12;;;;;;;;;;;;;;;9.56;76.29;100654.03;5056600;27;19967;-68
2022/01/03 08:28:37;;;;;;;;;;;;;;;9.65;76.20;100651.56;5036559;27;20865;-68
2022/01/03 08:31:02;;;;;;;;;;;;;;;9.59;76.85;100669.59;5054986;27;19928;-68
2022/01/03 08:33:27;;;;;;;;;;;;;;;9.62;76.77;100650.84;5056867;27;19994;-68
2022/01/03 08:35:52;;;;;;;;;;;;;;;9.62;77.65;100661.41;5035494;27;19982;-69
2022/01/03 08:38:18;;;;;;;;;;;;;;;9.83;77.51;100646.44;5049960;27;20046;-69
2022/01/03 08:40:43;;;;;;;;;;;;;;;9.76;77.12;100667.31;5052998;27;19907;-68
2022/01/03 08:43:08;;;;;;;;;;;;;;;9.65;77.86;100654.19;5039782;27;19918;-67
2022/01/03 08:45:34;;;;;;;;;;;;;;;9.76;77.17;100659.38;5035740;27;19920;-68
2022/01/03 08:47:59;;;;;;;;;;;;;;;9.66;77.61;100656.72;5002134;27;20534;-69
2022/01/03 08:50:25;;;;;;;;;;;;;;;9.69;78.04;100651.16;5030410;27;20403;-69
2022/01/03 08:52:50;;;;;;;;;;;;;;;9.61;78.14;100656.25;5018217;27;19920;-69
2022/01/03 08:55:15;;;;;;;;;;;;;;;9.74;78.31;100653.38;5029028;27;19952;-68
2022/01/03 08:57:41;;;;;;;;;;;;;;;9.59;79.09;100658.22;5035015;27;19959;-68
2022/01/03 09:00:07;;;;;;;;;;;;;;;9.69;79.55;100653.78;5036371;27;19903;-67
2022/01/03 09:02:32;;;;;;;;;;;;;;;9.72;80.00;100650.06;5029616;27;19960;-68
2022/01/03 09:04:58;;;;;;;;;;;;;;;9.67;80.87;100631.09;5059394;27;19948;-70
2022/01/03 09:07:23;;;;;;;;;;;;;;;9.63;81.19;100639.31;5036217;27;20095;-69
2022/01/03 09:09:48;;;;;;;;;;;;;;;9.61;81.25;100643.88;5061495;27;20855;-69
2022/01/03 09:12:13;;;;;;;;;;;;;;;9.55;80.78;100647.06;5058287;27;19919;-70
2022/01/03 09:14:38;;;;;;;;;;;;;;;9.52;80.97;100628.84;5056445;27;20339;-69
2022/01/03 09:17:04;;;;;;;;;;;;;;;9.55;80.54;100625.94;5038781;27;19956;-68
2022/01/03 09:19:29;;;;;;;;;;;;;;;9.60;81.14;100618.44;5037375;27;20016;-69
2022/01/03 09:22:11;;;;;;;;;;;;;;;9.70;79.92;100618.47;5037501;27;20740;-67
2022/01/03 09:24:46;;;;;;;;;;;;;;;9.72;79.16;100621.81;5018718;27;19915;-69
2022/01/03 09:29:56;;;;;;;;;;;;;;;9.79;79.33;100614.19;5020542;27;20146;-68
2022/01/03 09:32:22;;;;;;;;;;;;;;;9.82;77.87;100613.91;5015174;27;20382;-68
2022/01/03 09:34:47;;;;;;;;;;;;;;;9.94;76.31;100615.47;5034890;27;20739;-70
2022/01/03 09:37:12;;;;;;;;;;;;;;;10.12;75.15;100630.66;5031675;27;20010;-69
2022/01/03 09:39:38;;;;;;;;;;;;;;;10.06;74.91;100618.00;5055447;27;20862;-69
2022/01/03 09:42:04;;;;;;;;;;;;;;;10.19;75.46;100629.16;5033433;27;19963;-69
2022/01/03 09:44:30;;;;;;;;;;;;;;;10.39;74.60;100631.84;5028611;27;19923;-68
2022/01/03 09:46:55;;;;;;;;;;;;;;;10.49;73.61;100627.38;5009438;27;19907;-69
2022/01/03 09:49:20;;;;;;;;;;;;;;;10.46;74.02;100630.31;5014337;27;20355;-69
2022/01/03 09:51:46;;;;;;;;;;;;;;;10.39;73.84;100638.00;5019362;27;20546;-70
2022/01/03 09:54:14;;;;;;;;;;;;;;;10.42;72.95;100627.13;5021088;27;20001;-68
2022/01/03 09:56:39;;;;;;;;;;;;;;;10.60;72.61;100623.78;5032963;27;20005;-69
2022/01/03 09:59:05;;;;;;;;;;;;;;;10.76;72.61;100621.41;5017597;27;19915;-69
2022/01/03 10:01:30;;;;;;;;;;;;;;;10.91;71.58;100620.97;5015254;27;19908;-68
2022/01/03 10:03:55;;;;;;;;;;;;;;;10.98;70.06;100622.06;5020585;27;20000;-68
2022/01/03 10:06:21;;;;;;;;;;;;;;;11.21;70.38;100617.28;5012524;27;20584;-67
2022/01/03 10:08:46;;;;;;;;;;;;;;;11.22;69.31;100629.50;5035731;27;20111;-70
2022/01/03 10:11:11;;;;;;;;;;;;;;;11.18;69.24;100614.88;5016358;27;20263;-69
2022/01/03 10:13:37;;;;;;;;;;;;;;;10.95;69.49;100612.56;5015059;27;19987;-69
2022/01/03 10:16:02;;;;;;;;;;;;;;;10.85;70.73;100621.53;5006761;27;19915;-69
2022/01/03 10:18:27;;;;;;;;;;;;;;;10.87;70.89;100623.06;5016763;27;19922;-69
2022/01/03 10:20:53;;;;;;;;;;;;;;;11.00;70.82;100610.34;5037346;27;20728;-68
2022/01/03 10:23:18;;;;;;;;;;;;;;;10.89;70.05;100605.22;5025106;27;20011;-70
2022/01/03 10:25:46;;;;;;;;;;;;;;;10.86;70.48;100612.59;5020883;27;20295;-69
2022/01/03 10:28:11;;;;;;;;;;;;;;;11.05;70.21;100601.97;5016287;27;19976;-69
2022/01/03 10:30:38;;;;;;;;;;;;;;;10.98;69.80;100604.38;5012568;27;19904;-69
2022/01/03 10:33:04;;;;;;;;;;;;;;;10.89;69.57;100602.56;5019949;27;20021;-68
2022/01/03 10:35:34;;;;;;;;;;;;;;;10.87;70.50;100595.75;5000099;27;19907;-68
2022/01/03 10:37:59;;;;;;;;;;;;;;;10.85;70.09;100595.88;5016850;27;19921;-68
2022/01/03 10:40:27;;;;;;;;;;;;;;;10.80;70.06;100577.78;5033942;27;19911;-68
2022/01/03 10:42:53;;;;;;;;;;;;;;;10.74;70.83;100578.34;5032522;27;19918;-68
2022/01/03 10:45:28;;;;;;;;;;;;;;;10.76;70.88;100575.56;5050338;27;19926;-68
2022/01/03 10:47:53;;;;;;;;;;;;;;;10.76;70.15;100570.25;5022827;27;20265;-67
2022/01/03 10:50:19;;;;;;;;;;;;;;;10.84;69.89;100583.63;5045205;27;20310;-68
2022/01/03 10:52:45;;;;;;;;;;;;;;;10.92;69.78;100570.50;5020215;27;20364;-68
2022/01/03 10:55:14;;;;;;;;;;;;;;;10.83;70.09;100566.09;5034422;27;19904;-67
2022/01/03 10:57:43;;;;;;;;;;;;;;;10.78;70.30;100574.44;5036423;27;19911;-68
2022/01/03 11:00:35;;;;;;;;;;;;;;;10.81;71.00;100576.78;5022345;27;19952;-67
2022/01/03 11:05:44;;;;;;;;;;;;;;;11.00;69.52;100572.44;5032900;27;19952;-70
2022/01/03 11:10:44;;;;;;;;;;;;;;;11.05;69.66;100561.44;5051017;27;19912;-69
2022/01/03 11:13:13;;;;;;;;;;;;;;;11.22;69.19;100560.66;5032598;27;19956;-69
2022/01/03 11:15:51;;;;;;;;;;;;;;;11.42;68.44;100549.97;5024978;27;20508;-70
2022/01/03 11:18:25;;;;;;;;;;;;;;;11.34;68.21;100562.13;5053558;27;20667;-68
2022/01/03 11:21:17;;;;;;;;;;;;;;;11.55;67.09;100545.19;5035204;27;19903;-69
2022/01/03 11:23:42;;;;;;;;;;;;;;;11.75;66.92;100553.03;5030012;27;20873;-69
2022/01/03 11:26:11;;;;;;;;;;;;;;;11.52;67.26;100545.47;5032716;27;19944;-68
2022/01/03 11:28:36;;;;;;;;;;;;;;;11.66;67.34;100549.41;5029094;27;19991;-69
2022/01/03 11:31:02;;;;;;;;;;;;;;;11.52;67.79;100533.06;5051616;27;20091;-69
2022/01/03 11:33:28;;;;;;;;;;;;;;;11.61;67.32;100541.09;5009539;27;19934;-71
2022/01/03 11:35:53;;;;;;;;;;;;;;;11.36;67.76;100529.38;5016392;27;19919;-68
2022/01/03 11:38:19;;;;;;;;;;;;;;;11.23;68.41;100527.06;5052457;27;19918;-67
2022/01/03 11:40:44;;;;;;;;;;;;;;;11.44;67.84;100526.81;5050672;27;19911;-70
2022/01/03 11:43:09;;;;;;;;;;;;;;;11.43;67.06;100525.16;5031710;27;19930;-67
2022/01/03 11:45:34;;;;;;;;;;;;;;;11.59;67.08;100517.41;5051249;27;19915;-68
2022/01/03 11:48:00;;;;;;;;;;;;;;;11.66;67.37;100513.16;5033006;28;19903;-67
2022/01/03 11:50:25;;;;;;;;;;;;;;;11.69;66.34;100501.44;5032967;27;19907;-68
2022/01/03 11:52:50;;;;;;;;;;;;;;;11.76;66.03;100499.00;5042265;27;20252;-69
2022/01/03 11:55:16;;;;;;;;;;;;;;;11.62;66.55;100487.94;5035862;27;20008;-68
2022/01/03 12:06:03;;;;;;;;;;;;;;;11.34;67.74;100487.97;5033757;27;19930;-68
2022/01/03 12:08:29;;;;;;;;;;;;;;;11.38;67.43;100491.16;5033599;27;19907;-68
2022/01/03 12:10:54;;;;;;;;;;;;;;;11.29;67.77;100492.03;5043309;27;20143;-68
2022/01/03 12:13:21;;;;;;;;;;;;;;;11.31;67.67;100474.19;5049044;27;20353;-71
2022/01/03 12:15:46;;;;;;;;;;;;;;;11.12;68.55;100483.88;5059603;27;19903;-70
2022/01/03 12:18:30;;;;;;;;;;;;;;;10.99;69.04;100484.22;5057470;27;20318;-69
2022/01/03 12:20:55;;;;;;;;;;;;;;;10.97;69.18;100480.91;5059478;27;19907;-69
2022/01/03 12:23:39;;;;;;;;;;;;;;;10.91;69.10;100470.88;5075985;27;19914;-69
2022/01/03 12:26:09;;;;;;;;;;;;;;;11.12;68.72;100464.53;5046428;27;19911;-69
2022/01/03 12:28:53;;;;;;;;;;;;;;;11.06;69.59;100476.53;5029587;27;19911;-69
2022/01/03 12:31:18;;;;;;;;;;;;;;;11.05;69.25;100463.44;5056872;27;19907;-70
2022/01/03 12:33:55;;;;;;;;;;;;;;;10.97;70.38;100445.63;5028894;27;19980;-69
2022/01/03 12:36:21;;;;;;;;;;;;;;;10.91;69.75;100455.00;5023247;27;19914;-68
2022/01/03 12:39:00;;;;;;;;;;;;;;;11.00;69.98;100450.66;5055210;27;20383;-68
2022/01/03 12:41:42;;;;;;;;;;;;;;;10.89;70.30;100449.03;5020385;27;20143;-67
2022/01/03 12:44:08;;;;;;;;;;;;;;;10.98;70.07;100429.63;4995879;28;19935;-70
2022/01/03 12:46:33;;;;;;;;;;;;;;;10.99;70.65;100428.63;5012776;28;20694;-70
2022/01/03 12:48:59;;;;;;;;;;;;;;;10.96;72.22;100439.50;5015857;28;19910;-70
2022/01/03 12:51:33;;;;;;;;;;;;;;;10.81;73.15;100436.50;5012583;27;20001;-71
2022/01/03 12:53:58;;;;;;;;;;;;;;;10.75;74.08;100429.16;5014438;28;20173;-70
2022/01/03 12:56:26;;;;;;;;;;;;;;;10.82;74.06;100426.78;5013770;28;19910;-68
2022/01/03 12:58:52;;;;;;;;;;;;;;;10.54;75.09;100433.84;5013134;28;19919;-69
2022/01/03 13:01:17;;;;;;;;;;;;;;;10.40;75.52;100428.03;5025385;27;19908;-71